createdAt,value
2023-01-08T00:01:15.859Z,3.29
2023-01-08T00:02:16.739Z,3.24
2023-01-08T00:03:16.949Z,3.24
2023-01-08T00:04:16.772Z,3.23
2023-01-08T00:05:16.863Z,3.23
2023-01-08T00:06:16.771Z,3.26
2023-01-08T00:07:16.765Z,3.24
2023-01-08T00:08:16.661Z,3.29
2023-01-08T00:09:16.782Z,3.31
2023-01-08T00:10:16.630Z,3.32
2023-01-08T00:11:16.756Z,3.36
2023-01-08T00:12:16.651Z,3.42
2023-01-08T00:13:17.042Z,3.40
2023-01-08T00:14:16.569Z,3.42
2023-01-08T00:15:16.821Z,3.40
2023-01-08T00:16:16.787Z,3.39
2023-01-08T00:17:16.684Z,3.39
2023-01-08T00:18:16.581Z,3.47
2023-01-08T00:19:16.757Z,3.47
2023-01-08T00:20:16.496Z,3.45
2023-01-08T00:21:16.705Z,3.42
2023-01-08T00:22:16.579Z,3.42
2023-01-08T00:23:16.434Z,3.43
2023-01-08T00:24:16.751Z,3.40
2023-01-08T00:25:16.414Z,3.39
2023-01-08T00:26:16.631Z,3.45
2023-01-08T00:27:16.487Z,3.50
2023-01-08T00:28:16.401Z,3.60
2023-01-08T00:29:16.670Z,3.65
2023-01-08T00:30:16.408Z,3.61
2023-01-08T00:31:16.568Z,3.60
2023-01-08T00:32:16.353Z,3.58
2023-01-08T00:33:16.446Z,3.60
2023-01-08T00:34:16.335Z,3.65
2023-01-08T00:35:16.600Z,3.68
2023-01-08T00:36:16.304Z,3.62
2023-01-08T00:37:16.367Z,3.58
2023-01-08T00:38:16.282Z,3.61
2023-01-08T00:39:16.398Z,3.57
2023-01-08T00:40:16.250Z,3.55
2023-01-08T00:41:16.485Z,3.54
2023-01-08T00:42:16.336Z,3.51
2023-01-08T00:43:16.294Z,3.50
2023-01-08T00:44:16.225Z,3.45
2023-01-08T00:45:16.509Z,3.47
2023-01-08T00:46:16.233Z,3.51
2023-01-08T00:47:16.425Z,3.54
2023-01-08T00:48:16.250Z,3.54
2023-01-08T00:49:16.186Z,3.51
2023-01-08T00:50:16.391Z,3.51
2023-01-08T00:51:16.121Z,3.51
2023-01-08T00:52:16.297Z,3.48
2023-01-08T00:53:16.277Z,3.48
2023-01-08T00:54:16.259Z,3.47
2023-01-08T00:55:16.318Z,3.47
2023-01-08T00:56:16.052Z,3.48
2023-01-08T00:57:16.289Z,3.51
2023-01-08T00:58:16.053Z,3.57
2023-01-08T00:59:16.222Z,3.61
2023-01-08T01:00:16.156Z,3.66
2023-01-08T01:01:16.318Z,3.68
2023-01-08T01:02:16.093Z,3.66
2023-01-08T01:03:16.231Z,3.69
2023-01-08T01:04:16.013Z,3.69
2023-01-08T01:05:16.036Z,3.68
2023-01-08T01:06:15.974Z,3.62
2023-01-08T01:07:16.164Z,3.62
2023-01-08T01:08:15.924Z,3.61
2023-01-08T01:09:16.078Z,3.58
2023-01-08T01:10:15.876Z,3.57
2023-01-08T01:11:16.080Z,3.54
2023-01-08T01:12:15.855Z,3.52
2023-01-08T01:13:16.153Z,3.50
2023-01-08T01:14:16.024Z,3.48
2023-01-08T01:15:15.792Z,3.45
2023-01-08T01:16:15.957Z,3.40
2023-01-08T01:17:15.790Z,3.39
2023-01-08T01:18:15.951Z,3.36
2023-01-08T01:19:16.014Z,3.39
2023-01-08T01:20:15.767Z,3.39
2023-01-08T01:21:15.851Z,3.36
2023-01-08T01:22:15.771Z,3.39
2023-01-08T01:23:16.016Z,3.39
2023-01-08T01:24:15.781Z,3.42
2023-01-08T01:25:15.792Z,3.42
2023-01-08T01:26:15.671Z,3.36
2023-01-08T01:27:15.780Z,3.42
2023-01-08T01:28:15.685Z,3.40
2023-01-08T01:29:15.798Z,3.42
2023-01-08T01:30:15.636Z,3.43
2023-01-08T01:31:15.832Z,3.43
2023-01-08T01:32:15.626Z,3.43
2023-01-08T01:33:15.788Z,3.43
2023-01-08T01:34:15.627Z,3.48
2023-01-08T01:35:15.754Z,3.45
2023-01-08T01:36:15.555Z,3.50
2023-01-08T01:37:15.652Z,3.52
2023-01-08T01:38:15.564Z,3.55
2023-01-08T01:39:15.691Z,3.57
2023-01-08T01:40:15.699Z,3.60
2023-01-08T01:41:15.465Z,3.60
2023-01-08T01:42:15.700Z,3.65
2023-01-08T01:43:15.448Z,3.60
2023-01-08T01:44:15.781Z,3.62
2023-01-08T01:45:15.425Z,3.61
2023-01-08T01:46:15.759Z,3.58
2023-01-08T01:47:15.405Z,3.57
2023-01-08T01:48:15.611Z,3.54
2023-01-08T01:49:15.401Z,3.55
2023-01-08T01:50:15.667Z,3.52
2023-01-08T01:51:15.357Z,3.47
2023-01-08T01:52:15.572Z,3.47
2023-01-08T01:53:15.350Z,3.45
2023-01-08T01:54:15.508Z,3.40
2023-01-08T01:55:15.324Z,3.39
2023-01-08T01:56:15.599Z,3.40
2023-01-08T01:57:15.278Z,3.47
2023-01-08T01:58:15.582Z,3.50
2023-01-08T01:59:15.250Z,3.48
2023-01-08T02:00:16.613Z,3.48
2023-01-08T02:01:15.272Z,3.52
2023-01-08T02:02:15.481Z,3.55
2023-01-08T02:03:15.215Z,3.58
2023-01-08T02:04:15.481Z,3.61
2023-01-08T02:05:15.186Z,3.62
2023-01-08T02:06:15.370Z,3.61
2023-01-08T02:07:15.155Z,3.58
2023-01-08T02:08:15.767Z,3.61
2023-01-08T02:09:15.163Z,3.68
2023-01-08T02:10:15.399Z,3.70
2023-01-08T02:11:15.145Z,3.73
2023-01-08T02:12:15.419Z,3.75
2023-01-08T02:13:15.111Z,3.76
2023-01-08T02:14:15.221Z,3.78
2023-01-08T02:15:15.066Z,3.83
2023-01-08T02:16:15.405Z,3.80
2023-01-08T02:17:15.028Z,3.79
2023-01-08T02:18:15.247Z,3.80
2023-01-08T02:19:15.038Z,3.84
2023-01-08T02:20:15.219Z,3.88
2023-01-08T02:21:14.984Z,3.91
2023-01-08T02:22:15.284Z,3.93
2023-01-08T02:23:14.951Z,3.93
2023-01-08T02:24:15.082Z,3.94
2023-01-08T02:25:14.919Z,3.93
2023-01-08T02:26:15.244Z,3.94
2023-01-08T02:27:14.895Z,3.93
2023-01-08T02:28:15.219Z,3.93
2023-01-08T02:29:14.884Z,3.93
2023-01-08T02:30:15.114Z,3.91
2023-01-08T02:31:14.900Z,3.91
2023-01-08T02:32:15.192Z,3.91
2023-01-08T02:33:14.833Z,3.88
2023-01-08T02:34:15.089Z,3.91
2023-01-08T02:35:14.799Z,3.91
2023-01-08T02:36:14.952Z,3.93
2023-01-08T02:37:14.774Z,3.94
2023-01-08T02:38:15.022Z,3.96
2023-01-08T02:39:14.748Z,3.94
2023-01-08T02:40:15.001Z,3.94
2023-01-08T02:41:14.719Z,3.93
2023-01-08T02:42:14.947Z,3.97
2023-01-08T02:43:14.702Z,3.96
2023-01-08T02:44:14.912Z,3.93
2023-01-08T02:45:14.698Z,3.93
2023-01-08T02:46:14.851Z,3.94
2023-01-08T02:47:14.655Z,3.96
2023-01-08T02:48:14.839Z,3.94
2023-01-08T02:49:14.617Z,3.93
2023-01-08T02:50:14.902Z,3.98
2023-01-08T02:51:14.599Z,4.02
2023-01-08T02:52:14.874Z,4.02
2023-01-08T02:53:14.857Z,4.02
2023-01-08T02:54:14.609Z,3.97
2023-01-08T02:55:14.669Z,3.98
2023-01-08T02:56:14.554Z,3.94
2023-01-08T02:57:14.793Z,3.93
2023-01-08T02:58:14.545Z,3.96
2023-01-08T02:59:14.699Z,3.96
2023-01-08T03:00:14.606Z,4.00
2023-01-08T03:01:14.679Z,4.00
2023-01-08T03:02:14.578Z,4.02
2023-01-08T03:03:14.744Z,4.02
2023-01-08T03:04:14.518Z,4.02
2023-01-08T03:05:14.668Z,4.05
2023-01-08T03:06:14.506Z,4.06
2023-01-08T03:07:14.557Z,4.08
2023-01-08T03:08:14.399Z,4.11
2023-01-08T03:09:14.584Z,4.12
2023-01-08T03:10:14.357Z,4.12
2023-01-08T03:11:14.488Z,4.12
2023-01-08T03:12:14.357Z,4.12
2023-01-08T03:13:14.496Z,4.11
2023-01-08T03:14:14.298Z,4.09
2023-01-08T03:15:14.620Z,3.97
2023-01-08T03:16:14.384Z,3.98
2023-01-08T03:17:14.447Z,4.00
2023-01-08T03:18:14.258Z,4.00
2023-01-08T03:19:14.890Z,3.98
2023-01-08T03:20:14.250Z,3.97
2023-01-08T03:21:14.458Z,3.97
2023-01-08T03:22:14.247Z,3.96
2023-01-08T03:23:14.492Z,3.97
2023-01-08T03:24:14.207Z,3.94
2023-01-08T03:25:14.483Z,3.94
2023-01-08T03:26:14.159Z,3.91
2023-01-08T03:27:14.451Z,3.93
2023-01-08T03:28:14.131Z,3.90
2023-01-08T03:29:14.406Z,3.88
2023-01-08T03:30:14.093Z,3.88
2023-01-08T03:31:14.470Z,3.90
2023-01-08T03:32:14.152Z,3.88
2023-01-08T03:33:14.339Z,3.88
2023-01-08T03:34:14.061Z,3.84
2023-01-08T03:35:14.271Z,3.87
2023-01-08T03:36:14.025Z,3.84
2023-01-08T03:37:14.218Z,3.84
2023-01-08T03:38:13.993Z,3.86
2023-01-08T03:39:14.283Z,3.83
2023-01-08T03:40:13.974Z,3.83
2023-01-08T03:41:14.293Z,3.80
2023-01-08T03:42:13.984Z,3.86
2023-01-08T03:43:14.113Z,3.86
2023-01-08T03:44:13.949Z,3.87
2023-01-08T03:45:14.108Z,3.84
2023-01-08T03:46:13.991Z,3.91
2023-01-08T03:47:14.028Z,3.91
2023-01-08T03:48:13.912Z,3.90
2023-01-08T03:49:14.039Z,3.91
2023-01-08T03:50:13.859Z,3.91
2023-01-08T03:51:14.059Z,3.91
2023-01-08T03:52:13.828Z,3.91
2023-01-08T03:53:14.123Z,3.88
2023-01-08T03:54:13.794Z,3.90
2023-01-08T03:55:13.978Z,3.87
2023-01-08T03:56:13.782Z,3.88
2023-01-08T03:57:13.996Z,3.87
2023-01-08T03:58:13.785Z,3.86
2023-01-08T03:59:14.015Z,3.86
2023-01-08T04:00:13.728Z,3.87
2023-01-08T04:01:14.053Z,3.86
2023-01-08T04:02:13.876Z,3.87
2023-01-08T04:03:13.940Z,3.86
2023-01-08T04:04:13.769Z,3.88
2023-01-08T04:05:13.858Z,3.91
2023-01-08T04:06:13.847Z,3.90
2023-01-08T04:07:13.663Z,3.90
2023-01-08T04:08:13.803Z,3.91
2023-01-08T04:09:13.648Z,3.90
2023-01-08T04:10:13.780Z,3.90
2023-01-08T04:11:13.609Z,3.88
2023-01-08T04:12:13.920Z,3.86
2023-01-08T04:13:13.626Z,3.87
2023-01-08T04:14:13.801Z,3.86
2023-01-08T04:15:13.585Z,3.88
2023-01-08T04:16:13.746Z,3.93
2023-01-08T04:17:13.555Z,3.96
2023-01-08T04:18:13.740Z,3.94
2023-01-08T04:19:13.501Z,3.96
2023-01-08T04:20:13.747Z,3.97
2023-01-08T04:21:13.505Z,3.96
2023-01-08T04:22:13.648Z,3.93
2023-01-08T04:23:13.485Z,3.93
2023-01-08T04:24:14.693Z,3.90
2023-01-08T04:25:13.449Z,3.88
2023-01-08T04:26:13.675Z,3.86
2023-01-08T04:27:13.612Z,3.87
2023-01-08T04:28:13.408Z,3.86
2023-01-08T04:29:14.660Z,3.86
2023-01-08T04:30:13.345Z,3.86
2023-01-08T04:31:15.772Z,3.88
2023-01-08T04:32:35.554Z,3.88
2023-01-08T04:33:13.308Z,3.88
2023-01-08T04:34:14.573Z,3.94
2023-01-08T04:35:13.294Z,4.02
2023-01-08T04:36:15.548Z,4.18
2023-01-08T04:37:13.260Z,4.32
2023-01-08T04:38:14.511Z,4.44
2023-01-08T04:39:13.255Z,4.51
2023-01-08T04:41:27.045Z,4.69
2023-01-08T04:42:25.622Z,4.67
2023-01-08T04:44:39.462Z,4.65
2023-01-08T04:45:38.047Z,4.58
2023-01-08T04:46:46.143Z,4.54
2023-01-08T04:47:38.025Z,4.52
2023-01-08T04:48:39.342Z,4.48
2023-01-08T04:49:38.003Z,4.48
2023-01-08T04:50:40.392Z,4.45
2023-01-08T04:51:38.030Z,4.41
2023-01-08T04:52:38.251Z,4.42
2023-01-08T04:53:37.930Z,4.44
2023-01-08T04:54:40.218Z,4.40
2023-01-08T04:55:39.689Z,4.40
2023-01-08T04:56:40.285Z,4.41
2023-01-08T04:57:37.903Z,4.42
2023-01-08T04:58:59.238Z,4.41
2023-01-08T04:59:37.928Z,4.36
2023-01-08T05:00:37.991Z,4.34
2023-01-08T05:01:37.998Z,4.30
2023-01-08T05:02:39.330Z,4.30
2023-01-08T05:03:39.044Z,4.30
2023-01-08T05:04:37.819Z,4.30
2023-01-08T05:05:38.017Z,4.29
2023-01-08T05:06:37.836Z,4.32
2023-01-08T05:07:39.063Z,4.32
2023-01-08T05:08:38.921Z,4.41
2023-01-08T05:09:37.789Z,4.45
2023-01-08T05:10:37.942Z,4.48
2023-01-08T05:11:37.737Z,4.52
2023-01-08T05:12:37.926Z,4.55
2023-01-08T05:13:37.704Z,4.58
2023-01-08T05:14:37.975Z,4.58
2023-01-08T05:15:37.792Z,4.58
2023-01-08T05:16:37.781Z,4.60
2023-01-08T05:17:37.691Z,4.62
2023-01-08T05:18:38.823Z,4.69
2023-01-08T05:19:38.514Z,4.69
2023-01-08T05:20:37.825Z,4.73
2023-01-08T05:21:37.610Z,4.80
2023-01-08T05:22:37.812Z,4.84
2023-01-08T05:23:37.623Z,4.88
2023-01-08T05:24:37.851Z,4.89
2023-01-08T05:25:37.573Z,4.94
2023-01-08T05:26:37.744Z,4.97
2023-01-08T05:27:37.536Z,5.02
2023-01-08T05:28:37.797Z,5.07
2023-01-08T05:29:37.693Z,5.12
2023-01-08T05:30:37.474Z,5.12
2023-01-08T05:31:37.685Z,5.20
2023-01-08T05:32:37.451Z,5.20
2023-01-08T05:33:37.766Z,5.21
2023-01-08T05:34:37.463Z,5.22
2023-01-08T05:35:37.629Z,5.20
2023-01-08T05:36:37.397Z,5.22
2023-01-08T05:37:37.656Z,5.25
2023-01-08T05:38:37.401Z,5.27
2023-01-08T05:39:37.685Z,5.33
2023-01-08T05:40:37.352Z,5.35
2023-01-08T05:41:37.587Z,5.39
2023-01-08T05:42:37.309Z,5.43
2023-01-08T05:43:37.379Z,5.42
2023-01-08T05:44:37.326Z,5.51
2023-01-08T05:45:37.592Z,5.56
2023-01-08T05:46:37.341Z,5.60
2023-01-08T05:47:37.293Z,5.65
2023-01-08T05:48:37.246Z,5.67
2023-01-08T05:49:37.318Z,5.64
2023-01-08T05:50:37.459Z,5.65
2023-01-08T05:51:37.220Z,5.68
2023-01-08T05:52:37.317Z,5.68
2023-01-08T05:53:37.195Z,5.67
2023-01-08T05:54:37.439Z,5.67
2023-01-08T05:55:37.204Z,5.65
2023-01-08T05:56:37.469Z,5.67
2023-01-08T05:57:37.140Z,5.65
2023-01-08T05:58:37.262Z,5.64
2023-01-08T05:59:37.121Z,5.65
2023-01-08T06:00:37.277Z,5.68
2023-01-08T06:01:37.135Z,5.74
2023-01-08T06:02:37.251Z,5.76
2023-01-08T06:03:37.063Z,5.81
2023-01-08T06:04:37.242Z,5.83
2023-01-08T06:05:37.035Z,5.82
2023-01-08T06:06:37.146Z,5.76
2023-01-08T06:07:37.036Z,5.78
2023-01-08T06:08:37.132Z,5.82
2023-01-08T06:09:37.010Z,5.85
2023-01-08T06:10:37.057Z,5.85
2023-01-08T06:11:37.169Z,5.86
2023-01-08T06:12:36.931Z,5.86
2023-01-08T06:13:37.115Z,5.83
2023-01-08T06:14:36.895Z,5.81
2023-01-08T06:15:37.177Z,5.79
2023-01-08T06:16:36.884Z,5.76
2023-01-08T06:17:36.996Z,5.74
2023-01-08T06:18:36.874Z,5.76
2023-01-08T06:19:36.907Z,5.78
2023-01-08T06:20:36.868Z,5.81
2023-01-08T06:21:36.918Z,5.85
2023-01-08T06:22:36.815Z,5.89
2023-01-08T06:23:36.936Z,5.93
2023-01-08T06:24:36.786Z,5.96
2023-01-08T06:25:36.894Z,6.01
2023-01-08T06:26:36.761Z,6.06
2023-01-08T06:27:38.357Z,6.09
2023-01-08T06:28:36.753Z,6.15
2023-01-08T06:29:36.786Z,6.18
2023-01-08T06:30:36.727Z,6.21
2023-01-08T06:31:36.839Z,6.22
2023-01-08T06:32:36.670Z,6.30
2023-01-08T06:33:36.816Z,6.30
2023-01-08T06:34:36.647Z,6.34
2023-01-08T06:35:36.822Z,6.36
2023-01-08T06:36:36.660Z,6.33
2023-01-08T06:37:36.831Z,6.38
2023-01-08T06:38:36.615Z,6.40
2023-01-08T06:39:36.746Z,6.40
2023-01-08T06:40:36.592Z,6.40
2023-01-08T06:41:36.807Z,6.43
2023-01-08T06:42:36.550Z,6.40
2023-01-08T06:43:36.696Z,6.40
2023-01-08T06:44:36.518Z,6.41
2023-01-08T06:45:36.672Z,6.43
2023-01-08T06:46:36.530Z,6.43
2023-01-08T06:47:36.644Z,6.43
2023-01-08T06:48:36.483Z,6.43
2023-01-08T06:49:36.640Z,6.48
2023-01-08T06:50:36.451Z,6.49
2023-01-08T06:51:36.677Z,6.51
2023-01-08T06:52:36.427Z,6.52
2023-01-08T06:53:36.655Z,6.52
2023-01-08T06:54:36.399Z,6.54
2023-01-08T06:55:36.666Z,6.54
2023-01-08T06:56:52.388Z,6.58
2023-01-08T06:57:36.379Z,6.58
2023-01-08T06:58:36.543Z,6.59
2023-01-08T06:59:36.400Z,6.58
2023-01-08T07:00:36.457Z,6.61
2023-01-08T07:01:36.427Z,6.64
2023-01-08T07:02:36.841Z,6.62
2023-01-08T07:03:36.402Z,6.62
2023-01-08T07:04:36.377Z,6.67
2023-01-08T07:05:36.360Z,6.69
2023-01-08T07:06:36.456Z,6.73
2023-01-08T07:07:36.263Z,6.74
2023-01-08T07:08:36.447Z,6.77
2023-01-08T07:09:36.269Z,6.87
2023-01-08T07:10:36.505Z,6.89
2023-01-08T07:11:36.616Z,6.95
2023-01-08T07:12:36.485Z,7.03
2023-01-08T07:13:36.315Z,7.03
2023-01-08T07:14:36.581Z,7.07
2023-01-08T07:15:36.538Z,7.07
2023-01-08T07:16:36.420Z,7.13
2023-01-08T07:17:36.131Z,7.10
2023-01-08T07:18:36.443Z,7.13
2023-01-08T07:19:37.101Z,7.12
2023-01-08T07:20:36.086Z,7.15
2023-01-08T07:21:36.224Z,7.15
2023-01-08T07:22:36.046Z,7.15
2023-01-08T07:23:36.148Z,7.15
2023-01-08T07:24:36.009Z,7.17
2023-01-08T07:25:36.098Z,7.20
2023-01-08T07:26:35.987Z,7.21
2023-01-08T07:27:36.160Z,7.24
2023-01-08T07:28:35.950Z,7.21
2023-01-08T07:29:36.169Z,7.23
2023-01-08T07:30:35.970Z,7.25
2023-01-08T07:31:36.074Z,7.27
2023-01-08T07:32:35.907Z,7.27
2023-01-08T07:33:36.913Z,7.28
2023-01-08T07:34:36.164Z,7.27
2023-01-08T07:35:36.069Z,7.28
2023-01-08T07:36:35.906Z,7.27
2023-01-08T07:37:37.152Z,7.30
2023-01-08T07:38:35.870Z,7.28
2023-01-08T07:39:36.061Z,7.27
2023-01-08T07:40:38.467Z,7.28
2023-01-08T07:41:37.262Z,7.28
2023-01-08T07:42:35.942Z,7.28
2023-01-08T07:43:35.785Z,7.28
2023-01-08T07:44:35.975Z,7.30
2023-01-08T07:45:37.024Z,7.28
2023-01-08T07:46:36.468Z,7.28
2023-01-08T07:47:35.787Z,7.30
2023-01-08T07:48:35.812Z,7.30
2023-01-08T07:49:35.724Z,7.32
2023-01-08T07:50:35.996Z,7.32
2023-01-08T07:51:35.691Z,7.31
2023-01-08T07:52:35.834Z,7.28
2023-01-08T07:53:35.648Z,7.28
2023-01-08T07:54:35.897Z,7.25
2023-01-08T07:55:36.357Z,7.25
2023-01-08T07:56:35.772Z,7.28
2023-01-08T07:57:35.651Z,7.27
2023-01-08T07:58:35.653Z,7.27
2023-01-08T07:59:35.554Z,7.27
2023-01-08T08:00:36.771Z,7.27
2023-01-08T08:01:35.794Z,7.31
2023-01-08T08:02:35.772Z,7.30
2023-01-08T08:03:35.772Z,7.30
2023-01-08T08:04:35.551Z,7.28
2023-01-08T08:05:35.696Z,7.28
2023-01-08T08:06:35.517Z,7.30
2023-01-08T08:07:35.782Z,7.31
2023-01-08T08:08:35.554Z,7.32
2023-01-08T08:09:35.559Z,7.34
2023-01-08T08:10:41.723Z,7.31
2023-01-08T08:11:35.610Z,7.30
2023-01-08T08:12:35.457Z,7.28
2023-01-08T08:13:35.480Z,7.31
2023-01-08T08:14:35.402Z,7.32
2023-01-08T08:15:35.450Z,7.32
2023-01-08T08:16:36.423Z,7.34
2023-01-08T08:17:35.417Z,7.39
2023-01-08T08:18:35.399Z,7.39
2023-01-08T08:19:35.547Z,7.37
2023-01-08T08:20:35.354Z,7.37
2023-01-08T08:21:35.502Z,7.37
2023-01-08T08:22:35.554Z,7.32
2023-01-08T08:23:36.809Z,7.34
2023-01-08T08:24:35.444Z,7.35
2023-01-08T08:25:35.231Z,7.35
2023-01-08T08:26:35.401Z,7.34
2023-01-08T08:27:35.424Z,7.37
2023-01-08T08:28:35.254Z,7.35
2023-01-08T08:29:35.331Z,7.39
2023-01-08T08:30:35.448Z,7.40
2023-01-08T08:31:35.482Z,7.37
2023-01-08T08:32:35.177Z,7.39
2023-01-08T08:33:35.283Z,7.40
2023-01-08T08:34:36.634Z,7.40
2023-01-08T08:35:35.308Z,7.39
2023-01-08T08:36:35.141Z,7.39
2023-01-08T08:37:35.158Z,7.40
2023-01-08T08:38:35.120Z,7.37
2023-01-08T08:39:35.113Z,7.35
2023-01-08T08:40:35.073Z,7.35
2023-01-08T08:41:35.264Z,7.35
2023-01-08T08:42:35.088Z,7.37
2023-01-08T08:43:35.048Z,7.39
2023-01-08T08:44:35.054Z,7.37
2023-01-08T08:45:35.065Z,7.37
2023-01-08T08:46:35.082Z,7.40
2023-01-08T08:47:35.105Z,7.43
2023-01-08T08:48:35.227Z,7.45
2023-01-08T08:49:34.954Z,7.46
2023-01-08T08:50:35.296Z,7.48
2023-01-08T08:51:34.957Z,7.49
2023-01-08T08:52:36.180Z,7.52
2023-01-08T08:53:34.909Z,7.55
2023-01-08T08:54:35.141Z,7.55
2023-01-08T08:55:34.911Z,7.57
2023-01-08T08:56:34.975Z,7.57
2023-01-08T08:57:34.850Z,7.58
2023-01-08T08:58:35.041Z,7.58
2023-01-08T08:59:34.801Z,7.58
2023-01-08T09:00:34.986Z,7.60
2023-01-08T09:01:34.957Z,7.58
2023-01-08T09:02:35.181Z,7.55
2023-01-08T09:03:34.934Z,7.58
2023-01-08T09:04:34.860Z,7.61
2023-01-08T09:05:34.766Z,7.64
2023-01-08T09:06:35.831Z,7.68
2023-01-08T09:07:34.739Z,7.71
2023-01-08T09:08:34.902Z,7.74
2023-01-08T09:09:34.661Z,7.72
2023-01-08T09:10:34.856Z,7.72
2023-01-08T09:11:34.645Z,7.69
2023-01-08T09:12:34.845Z,7.72
2023-01-08T09:13:34.649Z,7.72
2023-01-08T09:14:35.419Z,7.71
2023-01-08T09:15:34.624Z,7.72
2023-01-08T09:16:34.827Z,7.75
2023-01-08T09:17:34.580Z,7.72
2023-01-08T09:18:34.845Z,7.74
2023-01-08T09:19:34.629Z,7.75
2023-01-08T09:20:34.722Z,7.80
2023-01-08T09:21:34.539Z,7.82
2023-01-08T09:22:34.737Z,7.85
2023-01-08T09:23:34.504Z,7.83
2023-01-08T09:24:34.641Z,7.85
2023-01-08T09:25:34.738Z,7.85
2023-01-08T09:26:34.634Z,7.85
2023-01-08T09:27:34.459Z,7.86
2023-01-08T09:28:34.703Z,7.89
2023-01-08T09:29:34.416Z,7.87
2023-01-08T09:30:34.546Z,7.89
2023-01-08T09:31:34.523Z,7.90
2023-01-08T09:32:34.473Z,7.92
2023-01-08T09:33:34.362Z,7.95
2023-01-08T09:34:34.502Z,7.98
2023-01-08T09:35:34.483Z,8.01
2023-01-08T09:36:34.412Z,8.04
2023-01-08T09:37:34.514Z,8.01
2023-01-08T09:38:34.335Z,8.01
2023-01-08T09:39:34.517Z,8.01
2023-01-08T09:40:34.383Z,8.01
2023-01-08T09:41:34.291Z,8.02
2023-01-08T09:42:34.358Z,8.01
2023-01-08T09:43:34.209Z,8.02
2023-01-08T09:44:34.921Z,8.04
2023-01-08T09:45:34.237Z,8.01
2023-01-08T09:46:34.573Z,8.04
2023-01-08T09:47:34.213Z,8.05
2023-01-08T09:48:34.618Z,8.02
2023-01-08T09:49:34.271Z,8.05
2023-01-08T09:50:34.290Z,8.04
2023-01-08T09:51:34.164Z,8.07
2023-01-08T09:52:34.307Z,8.07
2023-01-08T09:53:34.124Z,8.08
2023-01-08T09:54:34.326Z,8.10
2023-01-08T09:55:34.070Z,8.10
2023-01-08T09:56:34.476Z,8.11
2023-01-08T09:57:34.584Z,8.15
2023-01-08T09:58:34.168Z,8.16
2023-01-08T09:59:34.322Z,8.18
2023-01-08T10:00:34.714Z,8.19
2023-01-08T10:01:36.191Z,8.19
2023-01-08T10:02:34.813Z,8.19
2023-01-08T10:03:34.204Z,8.20
2023-01-08T10:04:33.996Z,8.22
2023-01-08T10:05:34.230Z,8.23
2023-01-08T10:06:33.992Z,8.29
2023-01-08T10:07:33.995Z,8.33
2023-01-08T10:08:33.982Z,8.34
2023-01-08T10:09:33.998Z,8.37
2023-01-08T10:10:33.987Z,8.40
2023-01-08T10:11:34.025Z,8.44
2023-01-08T10:12:33.895Z,8.44
2023-01-08T10:13:34.003Z,8.48
2023-01-08T10:14:33.923Z,8.50
2023-01-08T10:15:33.948Z,8.50
2023-01-08T10:16:33.911Z,8.47
2023-01-08T10:17:33.982Z,8.52
2023-01-08T10:18:34.243Z,8.50
2023-01-08T10:19:33.989Z,8.50
2023-01-08T10:20:34.439Z,8.53
2023-01-08T10:21:34.007Z,8.55
2023-01-08T10:22:33.907Z,8.53
2023-01-08T10:23:33.739Z,8.58
2023-01-08T10:24:34.032Z,8.59
2023-01-08T10:25:33.725Z,8.59
2023-01-08T10:26:34.223Z,8.62
2023-01-08T10:27:33.742Z,8.65
2023-01-08T10:28:34.141Z,8.65
2023-01-08T10:29:33.679Z,8.65
2023-01-08T10:30:33.804Z,8.65
2023-01-08T10:31:33.663Z,8.65
2023-01-08T10:32:33.781Z,8.68
2023-01-08T10:33:33.749Z,8.70
2023-01-08T10:34:33.779Z,8.73
2023-01-08T10:35:33.687Z,8.74
2023-01-08T10:36:33.728Z,8.76
2023-01-08T10:37:33.555Z,8.76
2023-01-08T10:38:34.155Z,8.80
2023-01-08T10:39:33.593Z,8.80
2023-01-08T10:40:33.695Z,8.84
2023-01-08T10:41:33.700Z,8.83
2023-01-08T10:42:33.671Z,8.89
2023-01-08T10:43:33.774Z,8.92
2023-01-08T10:44:33.704Z,8.94
2023-01-08T10:45:33.999Z,8.98
2023-01-08T10:46:33.615Z,9.02
2023-01-08T10:47:33.868Z,9.01
2023-01-08T10:48:33.698Z,9.08
2023-01-08T10:49:33.478Z,9.10
2023-01-08T10:50:33.578Z,9.11
2023-01-08T10:51:34.040Z,9.14
2023-01-08T10:52:33.996Z,9.17
2023-01-08T10:53:33.400Z,9.21
2023-01-08T10:54:33.542Z,9.24
2023-01-08T10:55:33.338Z,9.28
2023-01-08T10:56:34.062Z,9.31
2023-01-08T10:57:34.109Z,9.35
2023-01-08T10:58:33.555Z,9.38
2023-01-08T10:59:33.343Z,9.36
2023-01-08T11:00:33.414Z,9.38
2023-01-08T11:01:33.380Z,9.42
2023-01-08T11:02:34.414Z,9.47
2023-01-08T11:03:33.274Z,9.47
2023-01-08T11:04:33.376Z,9.51
2023-01-08T11:05:33.888Z,9.51
2023-01-08T11:06:33.431Z,9.58
2023-01-08T11:07:33.148Z,9.58
2023-01-08T11:08:33.455Z,9.65
2023-01-08T11:09:33.466Z,9.64
2023-01-08T11:10:33.148Z,9.66
2023-01-08T11:11:33.223Z,9.66
2023-01-08T11:12:33.130Z,9.71
2023-01-08T11:13:33.278Z,9.71
2023-01-08T11:14:33.115Z,9.71
2023-01-08T11:15:33.585Z,9.72
2023-01-08T11:16:34.847Z,9.71
2023-01-08T11:17:33.625Z,9.65
2023-01-08T11:18:34.052Z,9.64
2023-01-08T11:19:33.645Z,9.64
2023-01-08T11:20:33.389Z,9.60
2023-01-08T11:21:33.145Z,9.54
2023-01-08T11:22:33.228Z,9.56
2023-01-08T11:23:33.112Z,9.51
2023-01-08T11:24:33.283Z,9.48
2023-01-08T11:25:33.319Z,9.51
2023-01-08T11:26:33.676Z,9.51
2023-01-08T11:27:33.294Z,9.53
2023-01-08T11:28:32.939Z,9.53
2023-01-08T11:29:32.936Z,9.54
2023-01-08T11:30:33.033Z,9.56
2023-01-08T11:31:32.942Z,9.57
2023-01-08T11:32:32.990Z,9.57
2023-01-08T11:33:33.185Z,9.51
2023-01-08T11:34:33.055Z,9.57
2023-01-08T11:35:32.806Z,9.58
2023-01-08T11:36:33.053Z,9.66
2023-01-08T11:37:32.853Z,9.71
2023-01-08T11:38:33.004Z,9.79
2023-01-08T11:39:32.762Z,9.83
2023-01-08T11:40:32.849Z,9.87
2023-01-08T11:41:32.770Z,9.91
2023-01-08T11:42:33.800Z,10.02
2023-01-08T11:43:32.916Z,10.29
2023-01-08T11:44:32.869Z,10.42
2023-01-08T11:45:32.848Z,10.51
2023-01-08T11:46:32.890Z,10.56
2023-01-08T11:47:33.069Z,10.48
2023-01-08T11:48:32.917Z,10.51
2023-01-08T11:49:32.674Z,10.56
2023-01-08T11:50:32.772Z,10.53
2023-01-08T11:51:32.771Z,10.52
2023-01-08T11:52:32.649Z,10.41
2023-01-08T11:53:32.745Z,10.38
2023-01-08T11:54:32.632Z,10.40
2023-01-08T11:55:32.758Z,10.40
2023-01-08T11:56:32.786Z,10.38
2023-01-08T11:57:32.694Z,10.32
2023-01-08T11:58:32.885Z,10.32
2023-01-08T11:59:32.720Z,10.36
2023-01-08T12:00:32.977Z,10.40
2023-01-08T12:01:32.552Z,10.40
2023-01-08T12:02:32.646Z,10.34
2023-01-08T12:03:32.584Z,10.40
2023-01-08T12:04:32.680Z,10.40
2023-01-08T12:05:32.430Z,10.41
2023-01-08T12:06:32.548Z,10.42
2023-01-08T12:07:32.417Z,10.45
2023-01-08T12:08:32.664Z,10.40
2023-01-08T12:09:32.713Z,10.25
2023-01-08T12:10:32.581Z,10.25
2023-01-08T12:11:32.392Z,10.18
2023-01-08T12:12:32.474Z,10.18
2023-01-08T12:13:32.488Z,10.22
2023-01-08T12:14:32.451Z,10.20
2023-01-08T12:15:32.348Z,10.20
2023-01-08T12:16:32.562Z,10.18
2023-01-08T12:17:32.484Z,10.22
2023-01-08T12:18:32.261Z,10.20
2023-01-08T12:19:33.539Z,10.23
2023-01-08T12:20:32.219Z,10.27
2023-01-08T12:21:32.296Z,10.25
2023-01-08T12:22:32.355Z,10.17
2023-01-08T12:23:32.317Z,10.14
2023-01-08T12:24:32.192Z,10.12
2023-01-08T12:25:32.419Z,10.12
2023-01-08T12:26:32.242Z,10.12
2023-01-08T12:27:55.255Z,10.15
2023-01-08T12:28:32.705Z,10.20
2023-01-08T12:29:32.161Z,10.25
2023-01-08T12:30:32.340Z,10.25
2023-01-08T12:31:32.140Z,10.25
2023-01-08T12:32:32.313Z,10.23
2023-01-08T12:33:32.133Z,10.22
2023-01-08T12:34:32.262Z,10.17
2023-01-08T12:35:32.052Z,10.14
2023-01-08T12:36:32.075Z,10.09
2023-01-08T12:37:32.494Z,10.01
2023-01-08T12:38:32.133Z,9.99
2023-01-08T12:39:32.025Z,9.94
2023-01-08T12:40:32.084Z,9.89
2023-01-08T12:41:31.969Z,9.87
2023-01-08T12:42:32.310Z,9.86
2023-01-08T12:43:32.192Z,9.83
2023-01-08T12:44:32.625Z,9.83
2023-01-08T12:45:32.299Z,9.81
2023-01-08T12:46:31.942Z,9.81
2023-01-08T12:47:32.645Z,9.74
2023-01-08T12:48:31.899Z,9.75
2023-01-08T12:49:32.441Z,9.74
2023-01-08T12:50:31.854Z,9.71
2023-01-08T12:51:32.205Z,9.71
2023-01-08T12:52:31.874Z,9.71
2023-01-08T12:53:32.110Z,9.69
2023-01-08T12:54:31.827Z,9.68
2023-01-08T12:55:32.108Z,9.61
2023-01-08T12:56:31.810Z,9.61
2023-01-08T12:57:32.130Z,9.65
2023-01-08T12:58:31.743Z,9.64
2023-01-08T12:59:32.008Z,9.65
2023-01-08T13:00:33.090Z,9.69
2023-01-08T13:01:32.242Z,9.69
2023-01-08T13:02:31.823Z,9.68
2023-01-08T13:03:32.043Z,9.71
2023-01-08T13:04:32.248Z,9.72
2023-01-08T13:05:31.747Z,9.72
2023-01-08T13:06:33.679Z,9.72
2023-01-08T13:07:32.032Z,9.71
2023-01-08T13:08:33.036Z,9.74
2023-01-08T13:09:32.085Z,9.72
2023-01-08T13:10:32.371Z,9.71
2023-01-08T13:11:31.869Z,9.66
2023-01-08T13:12:31.816Z,9.65
2023-01-08T13:13:32.049Z,9.68
2023-01-08T13:14:31.720Z,9.68
2023-01-08T13:15:31.718Z,9.64
2023-01-08T13:16:31.970Z,9.65
2023-01-08T13:17:31.532Z,9.60
2023-01-08T13:18:31.641Z,9.60
2023-01-08T13:19:31.473Z,9.64